sensor_id;sensor_type;location;lat;lon;timestamp;P1;durP1;ratioP1;P2;durP2;ratioP2
13012;SDS011;22580;57.670;12.006;2023-05-07T00:00:37;0.30;;;0.30;;
13012;SDS011;22580;57.670;12.006;2023-05-07T00:03:06;0.37;;;0.20;;
13012;SDS011;22580;57.670;12.006;2023-05-07T00:05:34;0.30;;;0.30;;
13012;SDS011;22580;57.670;12.006;2023-05-07T00:08:03;0.20;;;0.20;;
13012;SDS011;22580;57.670;12.006;2023-05-07T00:10:31;0.20;;;0.20;;
13012;SDS011;22580;57.670;12.006;2023-05-07T00:12:58;0.20;;;0.20;;
13012;SDS011;22580;57.670;12.006;2023-05-07T00:15:26;0.20;;;0.20;;
13012;SDS011;22580;57.670;12.006;2023-05-07T00:17:53;0.23;;;0.23;;
13012;SDS011;22580;57.670;12.006;2023-05-07T00:20:22;0.13;;;0.13;;
13012;SDS011;22580;57.670;12.006;2023-05-07T00:22:50;0.30;;;0.30;;
13012;SDS011;22580;57.670;12.006;2023-05-07T00:25:17;0.30;;;0.30;;
13012;SDS011;22580;57.670;12.006;2023-05-07T00:27:46;0.50;;;0.20;;
13012;SDS011;22580;57.670;12.006;2023-05-07T00:30:13;0.20;;;0.20;;
13012;SDS011;22580;57.670;12.006;2023-05-07T00:32:43;0.30;;;0.30;;
13012;SDS011;22580;57.670;12.006;2023-05-07T00:35:11;0.20;;;0.20;;
13012;SDS011;22580;57.670;12.006;2023-05-07T00:37:41;0.20;;;0.20;;
13012;SDS011;22580;57.670;12.006;2023-05-07T00:40:08;0.20;;;0.20;;
13012;SDS011;22580;57.670;12.006;2023-05-07T00:42:36;0.40;;;0.40;;
13012;SDS011;22580;57.670;12.006;2023-05-07T00:45:04;0.30;;;0.30;;
13012;SDS011;22580;57.670;12.006;2023-05-07T00:47:32;0.30;;;0.30;;
13012;SDS011;22580;57.670;12.006;2023-05-07T00:50:00;0.30;;;0.30;;
13012;SDS011;22580;57.670;12.006;2023-05-07T00:52:28;0.30;;;0.30;;
13012;SDS011;22580;57.670;12.006;2023-05-07T00:54:58;0.20;;;0.20;;
13012;SDS011;22580;57.670;12.006;2023-05-07T00:57:32;0.20;;;0.20;;
13012;SDS011;22580;57.670;12.006;2023-05-07T01:00:03;0.10;;;0.10;;
13012;SDS011;22580;57.670;12.006;2023-05-07T01:02:31;0.10;;;0.10;;
13012;SDS011;22580;57.670;12.006;2023-05-07T01:04:58;0.20;;;0.20;;
13012;SDS011;22580;57.670;12.006;2023-05-07T01:07:28;0.17;;;0.17;;
13012;SDS011;22580;57.670;12.006;2023-05-07T01:09:58;0.20;;;0.20;;
13012;SDS011;22580;57.670;12.006;2023-05-07T01:12:27;0.27;;;0.27;;
13012;SDS011;22580;57.670;12.006;2023-05-07T01:14:56;0.20;;;0.20;;
13012;SDS011;22580;57.670;12.006;2023-05-07T01:17:26;0.30;;;0.30;;
13012;SDS011;22580;57.670;12.006;2023-05-07T01:19:54;0.23;;;0.23;;
13012;SDS011;22580;57.670;12.006;2023-05-07T01:22:30;0.30;;;0.20;;
13012;SDS011;22580;57.670;12.006;2023-05-07T01:24:59;0.23;;;0.23;;
13012;SDS011;22580;57.670;12.006;2023-05-07T01:27:28;0.30;;;0.30;;
13012;SDS011;22580;57.670;12.006;2023-05-07T01:29:55;0.37;;;0.37;;
13012;SDS011;22580;57.670;12.006;2023-05-07T01:32:23;0.30;;;0.30;;
13012;SDS011;22580;57.670;12.006;2023-05-07T01:34:58;0.23;;;0.23;;
13012;SDS011;22580;57.670;12.006;2023-05-07T01:37:27;0.20;;;0.20;;
13012;SDS011;22580;57.670;12.006;2023-05-07T01:39:57;0.20;;;0.20;;
13012;SDS011;22580;57.670;12.006;2023-05-07T01:42:24;0.10;;;0.10;;
13012;SDS011;22580;57.670;12.006;2023-05-07T01:44:52;0.37;;;0.37;;
13012;SDS011;22580;57.670;12.006;2023-05-07T01:47:19;0.23;;;0.23;;
13012;SDS011;22580;57.670;12.006;2023-05-07T01:49:48;0.40;;;0.40;;
13012;SDS011;22580;57.670;12.006;2023-05-07T01:52:15;0.30;;;0.30;;
13012;SDS011;22580;57.670;12.006;2023-05-07T01:54:45;0.37;;;0.27;;
13012;SDS011;22580;57.670;12.006;2023-05-07T01:57:12;0.40;;;0.40;;
13012;SDS011;22580;57.670;12.006;2023-05-07T01:59:40;0.30;;;0.30;;
13012;SDS011;22580;57.670;12.006;2023-05-07T02:02:07;0.40;;;0.40;;
13012;SDS011;22580;57.670;12.006;2023-05-07T02:04:35;0.30;;;0.30;;
13012;SDS011;22580;57.670;12.006;2023-05-07T02:09:38;0.93;;;0.40;;
13012;SDS011;22580;57.670;12.006;2023-05-07T02:12:08;0.40;;;0.40;;
13012;SDS011;22580;57.670;12.006;2023-05-07T02:14:35;0.40;;;0.33;;
13012;SDS011;22580;57.670;12.006;2023-05-07T02:17:03;0.40;;;0.40;;
13012;SDS011;22580;57.670;12.006;2023-05-07T02:19:30;0.40;;;0.40;;
13012;SDS011;22580;57.670;12.006;2023-05-07T02:21:57;0.30;;;0.30;;
13012;SDS011;22580;57.670;12.006;2023-05-07T02:24:25;0.40;;;0.40;;
13012;SDS011;22580;57.670;12.006;2023-05-07T02:26:53;0.40;;;0.40;;
13012;SDS011;22580;57.670;12.006;2023-05-07T02:29:22;0.30;;;0.30;;
13012;SDS011;22580;57.670;12.006;2023-05-07T02:31:50;0.53;;;0.53;;
13012;SDS011;22580;57.670;12.006;2023-05-07T02:34:18;0.50;;;0.50;;
13012;SDS011;22580;57.670;12.006;2023-05-07T02:36:48;0.50;;;0.50;;
13012;SDS011;22580;57.670;12.006;2023-05-07T02:39:16;0.57;;;0.57;;
13012;SDS011;22580;57.670;12.006;2023-05-07T02:41:43;0.63;;;0.50;;
13012;SDS011;22580;57.670;12.006;2023-05-07T02:44:11;0.70;;;0.70;;
13012;SDS011;22580;57.670;12.006;2023-05-07T02:46:40;0.50;;;0.50;;
13012;SDS011;22580;57.670;12.006;2023-05-07T02:49:11;0.40;;;0.40;;
13012;SDS011;22580;57.670;12.006;2023-05-07T02:51:39;0.83;;;0.43;;
13012;SDS011;22580;57.670;12.006;2023-05-07T02:54:06;0.63;;;0.50;;
13012;SDS011;22580;57.670;12.006;2023-05-07T02:56:33;0.43;;;0.37;;
13012;SDS011;22580;57.670;12.006;2023-05-07T02:59:00;0.60;;;0.60;;
13012;SDS011;22580;57.670;12.006;2023-05-07T03:01:27;0.60;;;0.60;;
13012;SDS011;22580;57.670;12.006;2023-05-07T03:03:55;0.40;;;0.40;;
13012;SDS011;22580;57.670;12.006;2023-05-07T03:06:22;0.40;;;0.40;;
13012;SDS011;22580;57.670;12.006;2023-05-07T03:08:49;0.60;;;0.40;;
13012;SDS011;22580;57.670;12.006;2023-05-07T03:11:16;0.50;;;0.50;;
13012;SDS011;22580;57.670;12.006;2023-05-07T03:13:43;0.40;;;0.40;;
13012;SDS011;22580;57.670;12.006;2023-05-07T03:16:10;0.50;;;0.50;;
13012;SDS011;22580;57.670;12.006;2023-05-07T03:18:38;0.50;;;0.50;;
13012;SDS011;22580;57.670;12.006;2023-05-07T03:21:06;0.73;;;0.60;;
13012;SDS011;22580;57.670;12.006;2023-05-07T03:23:33;1.00;;;0.50;;
13012;SDS011;22580;57.670;12.006;2023-05-07T03:26:00;1.40;;;0.50;;
13012;SDS011;22580;57.670;12.006;2023-05-07T03:28:27;0.30;;;0.30;;
13012;SDS011;22580;57.670;12.006;2023-05-07T03:30:54;0.67;;;0.50;;
13012;SDS011;22580;57.670;12.006;2023-05-07T03:33:21;0.50;;;0.50;;
13012;SDS011;22580;57.670;12.006;2023-05-07T03:35:48;0.40;;;0.40;;
13012;SDS011;22580;57.670;12.006;2023-05-07T03:38:16;0.60;;;0.60;;
13012;SDS011;22580;57.670;12.006;2023-05-07T03:40:43;0.53;;;0.53;;
13012;SDS011;22580;57.670;12.006;2023-05-07T03:43:10;0.83;;;0.60;;
13012;SDS011;22580;57.670;12.006;2023-05-07T03:45:37;0.40;;;0.40;;
13012;SDS011;22580;57.670;12.006;2023-05-07T03:48:04;0.40;;;0.40;;
13012;SDS011;22580;57.670;12.006;2023-05-07T03:50:31;0.60;;;0.60;;
13012;SDS011;22580;57.670;12.006;2023-05-07T03:52:58;0.43;;;0.43;;
13012;SDS011;22580;57.670;12.006;2023-05-07T03:55:26;0.47;;;0.47;;
13012;SDS011;22580;57.670;12.006;2023-05-07T03:57:54;0.37;;;0.37;;
13012;SDS011;22580;57.670;12.006;2023-05-07T04:00:22;0.50;;;0.50;;
13012;SDS011;22580;57.670;12.006;2023-05-07T04:02:49;0.60;;;0.60;;
13012;SDS011;22580;57.670;12.006;2023-05-07T04:05:16;0.30;;;0.30;;
13012;SDS011;22580;57.670;12.006;2023-05-07T04:07:43;0.40;;;0.40;;
13012;SDS011;22580;57.670;12.006;2023-05-07T04:10:10;0.40;;;0.40;;
13012;SDS011;22580;57.670;12.006;2023-05-07T04:12:39;0.40;;;0.40;;
13012;SDS011;22580;57.670;12.006;2023-05-07T04:15:07;0.50;;;0.50;;
13012;SDS011;22580;57.670;12.006;2023-05-07T04:17:34;0.30;;;0.30;;
13012;SDS011;22580;57.670;12.006;2023-05-07T04:20:02;0.30;;;0.30;;
13012;SDS011;22580;57.670;12.006;2023-05-07T04:22:29;0.40;;;0.40;;
13012;SDS011;22580;57.670;12.006;2023-05-07T04:24:56;0.40;;;0.40;;
13012;SDS011;22580;57.670;12.006;2023-05-07T04:27:23;0.40;;;0.40;;
13012;SDS011;22580;57.670;12.006;2023-05-07T04:29:51;0.30;;;0.30;;
13012;SDS011;22580;57.670;12.006;2023-05-07T04:32:20;0.30;;;0.30;;
13012;SDS011;22580;57.670;12.006;2023-05-07T04:34:50;0.30;;;0.30;;
13012;SDS011;22580;57.670;12.006;2023-05-07T04:37:18;0.30;;;0.30;;
13012;SDS011;22580;57.670;12.006;2023-05-07T04:39:45;0.60;;;0.60;;
13012;SDS011;22580;57.670;12.006;2023-05-07T04:42:14;0.70;;;0.57;;
13012;SDS011;22580;57.670;12.006;2023-05-07T04:44:41;0.63;;;0.50;;
13012;SDS011;22580;57.670;12.006;2023-05-07T04:47:09;0.30;;;0.30;;
13012;SDS011;22580;57.670;12.006;2023-05-07T04:49:36;0.50;;;0.40;;
13012;SDS011;22580;57.670;12.006;2023-05-07T04:52:04;0.40;;;0.40;;
13012;SDS011;22580;57.670;12.006;2023-05-07T04:54:31;0.50;;;0.50;;
13012;SDS011;22580;57.670;12.006;2023-05-07T04:56:58;0.50;;;0.50;;
13012;SDS011;22580;57.670;12.006;2023-05-07T04:59:25;0.60;;;0.60;;
13012;SDS011;22580;57.670;12.006;2023-05-07T05:01:52;0.30;;;0.30;;
13012;SDS011;22580;57.670;12.006;2023-05-07T05:04:20;0.50;;;0.50;;
13012;SDS011;22580;57.670;12.006;2023-05-07T05:06:47;0.40;;;0.40;;
13012;SDS011;22580;57.670;12.006;2023-05-07T05:09:14;0.50;;;0.50;;
13012;SDS011;22580;57.670;12.006;2023-05-07T05:11:41;0.50;;;0.50;;
13012;SDS011;22580;57.670;12.006;2023-05-07T05:14:08;0.30;;;0.30;;
13012;SDS011;22580;57.670;12.006;2023-05-07T05:16:36;0.50;;;0.50;;
13012;SDS011;22580;57.670;12.006;2023-05-07T05:19:02;0.40;;;0.40;;
13012;SDS011;22580;57.670;12.006;2023-05-07T05:21:31;0.20;;;0.20;;
13012;SDS011;22580;57.670;12.006;2023-05-07T05:23:58;1.07;;;0.50;;
13012;SDS011;22580;57.670;12.006;2023-05-07T05:26:25;0.47;;;0.47;;
13012;SDS011;22580;57.670;12.006;2023-05-07T05:28:52;1.93;;;0.70;;
13012;SDS011;22580;57.670;12.006;2023-05-07T05:31:19;0.40;;;0.40;;
13012;SDS011;22580;57.670;12.006;2023-05-07T05:33:46;0.37;;;0.37;;
13012;SDS011;22580;57.670;12.006;2023-05-07T05:36:15;0.37;;;0.30;;
13012;SDS011;22580;57.670;12.006;2023-05-07T05:38:43;0.30;;;0.30;;
13012;SDS011;22580;57.670;12.006;2023-05-07T05:41:10;0.40;;;0.40;;
13012;SDS011;22580;57.670;12.006;2023-05-07T05:43:37;0.50;;;0.50;;
13012;SDS011;22580;57.670;12.006;2023-05-07T05:46:04;0.40;;;0.40;;
13012;SDS011;22580;57.670;12.006;2023-05-07T05:48:33;0.57;;;0.57;;
13012;SDS011;22580;57.670;12.006;2023-05-07T05:51:00;0.40;;;0.40;;
13012;SDS011;22580;57.670;12.006;2023-05-07T05:53:27;0.50;;;0.50;;
13012;SDS011;22580;57.670;12.006;2023-05-07T05:55:55;0.40;;;0.30;;
13012;SDS011;22580;57.670;12.006;2023-05-07T05:58:22;0.63;;;0.50;;
13012;SDS011;22580;57.670;12.006;2023-05-07T06:00:49;0.50;;;0.50;;
13012;SDS011;22580;57.670;12.006;2023-05-07T06:03:18;0.50;;;0.50;;
13012;SDS011;22580;57.670;12.006;2023-05-07T06:05:45;0.40;;;0.40;;
13012;SDS011;22580;57.670;12.006;2023-05-07T06:08:13;0.70;;;0.70;;
13012;SDS011;22580;57.670;12.006;2023-05-07T06:10:40;0.40;;;0.40;;
13012;SDS011;22580;57.670;12.006;2023-05-07T06:13:09;0.47;;;0.47;;
13012;SDS011;22580;57.670;12.006;2023-05-07T06:15:36;0.40;;;0.40;;
13012;SDS011;22580;57.670;12.006;2023-05-07T06:18:03;0.40;;;0.40;;
13012;SDS011;22580;57.670;12.006;2023-05-07T06:20:30;0.40;;;0.40;;
13012;SDS011;22580;57.670;12.006;2023-05-07T06:22:57;0.50;;;0.50;;
13012;SDS011;22580;57.670;12.006;2023-05-07T06:25:24;0.23;;;0.23;;
13012;SDS011;22580;57.670;12.006;2023-05-07T06:27:51;0.30;;;0.30;;
13012;SDS011;22580;57.670;12.006;2023-05-07T06:30:20;0.40;;;0.40;;
13012;SDS011;22580;57.670;12.006;2023-05-07T06:32:47;0.37;;;0.37;;
13012;SDS011;22580;57.670;12.006;2023-05-07T06:35:15;0.20;;;0.20;;
13012;SDS011;22580;57.670;12.006;2023-05-07T06:37:42;0.37;;;0.37;;
13012;SDS011;22580;57.670;12.006;2023-05-07T06:40:09;0.40;;;0.40;;
13012;SDS011;22580;57.670;12.006;2023-05-07T06:42:37;0.50;;;0.50;;
13012;SDS011;22580;57.670;12.006;2023-05-07T06:45:04;0.37;;;0.37;;
13012;SDS011;22580;57.670;12.006;2023-05-07T06:47:34;0.40;;;0.40;;
13012;SDS011;22580;57.670;12.006;2023-05-07T06:50:00;0.30;;;0.27;;
13012;SDS011;22580;57.670;12.006;2023-05-07T06:52:27;0.30;;;0.30;;
13012;SDS011;22580;57.670;12.006;2023-05-07T06:54:55;0.37;;;0.37;;
13012;SDS011;22580;57.670;12.006;2023-05-07T06:57:22;0.47;;;0.47;;
13012;SDS011;22580;57.670;12.006;2023-05-07T06:59:51;0.37;;;0.37;;
13012;SDS011;22580;57.670;12.006;2023-05-07T07:02:18;0.30;;;0.30;;
13012;SDS011;22580;57.670;12.006;2023-05-07T07:04:47;0.23;;;0.23;;
13012;SDS011;22580;57.670;12.006;2023-05-07T07:07:14;0.50;;;0.50;;
13012;SDS011;22580;57.670;12.006;2023-05-07T07:09:41;0.57;;;0.57;;
13012;SDS011;22580;57.670;12.006;2023-05-07T07:12:08;0.53;;;0.53;;
13012;SDS011;22580;57.670;12.006;2023-05-07T07:14:35;0.50;;;0.50;;
13012;SDS011;22580;57.670;12.006;2023-05-07T07:17:05;0.40;;;0.40;;
13012;SDS011;22580;57.670;12.006;2023-05-07T07:19:32;0.30;;;0.30;;
13012;SDS011;22580;57.670;12.006;2023-05-07T07:22:00;0.30;;;0.30;;
13012;SDS011;22580;57.670;12.006;2023-05-07T07:24:28;0.60;;;0.60;;
13012;SDS011;22580;57.670;12.006;2023-05-07T07:27:03;0.30;;;0.30;;
13012;SDS011;22580;57.670;12.006;2023-05-07T07:29:30;1.03;;;0.60;;
13012;SDS011;22580;57.670;12.006;2023-05-07T07:31:57;0.60;;;0.60;;
13012;SDS011;22580;57.670;12.006;2023-05-07T07:34:24;0.83;;;0.83;;
13012;SDS011;22580;57.670;12.006;2023-05-07T07:36:51;0.70;;;0.70;;
13012;SDS011;22580;57.670;12.006;2023-05-07T07:39:19;0.90;;;0.73;;
13012;SDS011;22580;57.670;12.006;2023-05-07T07:41:46;0.90;;;0.90;;
13012;SDS011;22580;57.670;12.006;2023-05-07T07:44:13;0.93;;;0.93;;
13012;SDS011;22580;57.670;12.006;2023-05-07T07:46:41;0.80;;;0.80;;
13012;SDS011;22580;57.670;12.006;2023-05-07T07:49:08;0.90;;;0.90;;
13012;SDS011;22580;57.670;12.006;2023-05-07T07:51:35;0.80;;;0.80;;
13012;SDS011;22580;57.670;12.006;2023-05-07T07:54:02;0.77;;;0.67;;
13012;SDS011;22580;57.670;12.006;2023-05-07T07:56:31;0.90;;;0.90;;
13012;SDS011;22580;57.670;12.006;2023-05-07T07:58:58;0.97;;;0.93;;
13012;SDS011;22580;57.670;12.006;2023-05-07T08:01:26;0.70;;;0.70;;
13012;SDS011;22580;57.670;12.006;2023-05-07T08:03:53;0.63;;;0.63;;
13012;SDS011;22580;57.670;12.006;2023-05-07T08:06:20;0.80;;;0.80;;
13012;SDS011;22580;57.670;12.006;2023-05-07T08:08:49;0.60;;;0.60;;
13012;SDS011;22580;57.670;12.006;2023-05-07T08:11:16;0.83;;;0.80;;
13012;SDS011;22580;57.670;12.006;2023-05-07T08:13:45;0.63;;;0.63;;
13012;SDS011;22580;57.670;12.006;2023-05-07T08:16:12;0.70;;;0.70;;
13012;SDS011;22580;57.670;12.006;2023-05-07T08:18:42;0.60;;;0.60;;
13012;SDS011;22580;57.670;12.006;2023-05-07T08:21:10;0.50;;;0.50;;
13012;SDS011;22580;57.670;12.006;2023-05-07T08:23:37;0.70;;;0.70;;
13012;SDS011;22580;57.670;12.006;2023-05-07T08:26:04;0.70;;;0.70;;
13012;SDS011;22580;57.670;12.006;2023-05-07T08:28:32;0.60;;;0.60;;
13012;SDS011;22580;57.670;12.006;2023-05-07T08:31:02;0.60;;;0.60;;
13012;SDS011;22580;57.670;12.006;2023-05-07T08:33:29;0.70;;;0.70;;
13012;SDS011;22580;57.670;12.006;2023-05-07T08:35:56;0.50;;;0.50;;
13012;SDS011;22580;57.670;12.006;2023-05-07T08:38:23;0.80;;;0.77;;
13012;SDS011;22580;57.670;12.006;2023-05-07T08:40:51;0.77;;;0.77;;
13012;SDS011;22580;57.670;12.006;2023-05-07T08:43:18;0.90;;;0.80;;
13012;SDS011;22580;57.670;12.006;2023-05-07T08:45:47;0.50;;;0.50;;
13012;SDS011;22580;57.670;12.006;2023-05-07T08:48:21;0.60;;;0.60;;
13012;SDS011;22580;57.670;12.006;2023-05-07T08:50:50;0.70;;;0.60;;
13012;SDS011;22580;57.670;12.006;2023-05-07T08:53:17;0.60;;;0.60;;
13012;SDS011;22580;57.670;12.006;2023-05-07T08:55:44;0.80;;;0.80;;
13012;SDS011;22580;57.670;12.006;2023-05-07T08:58:12;0.80;;;0.80;;
13012;SDS011;22580;57.670;12.006;2023-05-07T09:00:39;0.67;;;0.60;;
13012;SDS011;22580;57.670;12.006;2023-05-07T09:03:08;0.60;;;0.60;;
13012;SDS011;22580;57.670;12.006;2023-05-07T09:05:38;0.60;;;0.60;;
13012;SDS011;22580;57.670;12.006;2023-05-07T09:08:06;0.60;;;0.60;;
13012;SDS011;22580;57.670;12.006;2023-05-07T09:10:34;0.73;;;0.73;;
13012;SDS011;22580;57.670;12.006;2023-05-07T09:13:01;0.40;;;0.40;;
13012;SDS011;22580;57.670;12.006;2023-05-07T09:15:30;0.80;;;0.80;;
13012;SDS011;22580;57.670;12.006;2023-05-07T09:17:59;0.80;;;0.80;;
13012;SDS011;22580;57.670;12.006;2023-05-07T09:20:29;1.27;;;0.70;;
13012;SDS011;22580;57.670;12.006;2023-05-07T09:22:58;0.80;;;0.67;;
13012;SDS011;22580;57.670;12.006;2023-05-07T09:25:28;0.60;;;0.60;;
13012;SDS011;22580;57.670;12.006;2023-05-07T09:27:55;0.70;;;0.70;;
13012;SDS011;22580;57.670;12.006;2023-05-07T09:30:22;0.83;;;0.83;;
13012;SDS011;22580;57.670;12.006;2023-05-07T09:32:53;0.90;;;0.90;;
13012;SDS011;22580;57.670;12.006;2023-05-07T09:35:20;0.70;;;0.70;;
13012;SDS011;22580;57.670;12.006;2023-05-07T09:37:49;0.70;;;0.70;;
13012;SDS011;22580;57.670;12.006;2023-05-07T09:40:21;0.60;;;0.60;;
13012;SDS011;22580;57.670;12.006;2023-05-07T09:42:49;0.70;;;0.70;;
13012;SDS011;22580;57.670;12.006;2023-05-07T09:45:21;0.70;;;0.70;;
13012;SDS011;22580;57.670;12.006;2023-05-07T09:47:49;0.60;;;0.60;;
13012;SDS011;22580;57.670;12.006;2023-05-07T09:50:24;0.70;;;0.70;;
13012;SDS011;22580;57.670;12.006;2023-05-07T09:52:55;0.60;;;0.60;;
13012;SDS011;22580;57.670;12.006;2023-05-07T09:55:24;0.70;;;0.70;;
13012;SDS011;22580;57.670;12.006;2023-05-07T09:57:52;0.60;;;0.60;;
13012;SDS011;22580;57.670;12.006;2023-05-07T10:00:21;1.00;;;0.60;;
13012;SDS011;22580;57.670;12.006;2023-05-07T10:02:49;0.60;;;0.60;;
13012;SDS011;22580;57.670;12.006;2023-05-07T10:05:18;0.60;;;0.60;;
13012;SDS011;22580;57.670;12.006;2023-05-07T10:07:48;0.67;;;0.67;;
13012;SDS011;22580;57.670;12.006;2023-05-07T10:10:17;0.50;;;0.43;;
13012;SDS011;22580;57.670;12.006;2023-05-07T10:12:46;0.60;;;0.60;;
13012;SDS011;22580;57.670;12.006;2023-05-07T10:15:15;0.70;;;0.70;;
13012;SDS011;22580;57.670;12.006;2023-05-07T10:17:42;0.60;;;0.60;;
13012;SDS011;22580;57.670;12.006;2023-05-07T10:20:12;0.50;;;0.50;;
13012;SDS011;22580;57.670;12.006;2023-05-07T10:22:40;0.80;;;0.80;;
13012;SDS011;22580;57.670;12.006;2023-05-07T10:25:14;1.15;;;0.70;;
13012;SDS011;22580;57.670;12.006;2023-05-07T10:27:46;0.70;;;0.70;;
13012;SDS011;22580;57.670;12.006;2023-05-07T10:30:17;0.60;;;0.60;;
13012;SDS011;22580;57.670;12.006;2023-05-07T10:32:53;0.70;;;0.70;;
13012;SDS011;22580;57.670;12.006;2023-05-07T10:35:30;0.65;;;0.57;;
13012;SDS011;22580;57.670;12.006;2023-05-07T10:38:04;0.50;;;0.50;;
13012;SDS011;22580;57.670;12.006;2023-05-07T10:40:32;0.70;;;0.70;;
13012;SDS011;22580;57.670;12.006;2023-05-07T10:43:01;0.60;;;0.60;;
13012;SDS011;22580;57.670;12.006;2023-05-07T10:45:30;0.52;;;0.52;;
13012;SDS011;22580;57.670;12.006;2023-05-07T10:48:09;0.63;;;0.60;;
13012;SDS011;22580;57.670;12.006;2023-05-07T10:50:38;0.98;;;0.60;;
13012;SDS011;22580;57.670;12.006;2023-05-07T10:53:25;0.73;;;0.73;;
13012;SDS011;22580;57.670;12.006;2023-05-07T10:59:03;0.85;;;0.85;;
13012;SDS011;22580;57.670;12.006;2023-05-07T11:01:57;0.70;;;0.70;;
13012;SDS011;22580;57.670;12.006;2023-05-07T11:04:28;0.60;;;0.60;;
13012;SDS011;22580;57.670;12.006;2023-05-07T11:10:02;0.65;;;0.63;;
13012;SDS011;22580;57.670;12.006;2023-05-07T11:15:37;0.43;;;0.43;;
13012;SDS011;22580;57.670;12.006;2023-05-07T11:18:08;0.50;;;0.50;;
13012;SDS011;22580;57.670;12.006;2023-05-07T11:20:44;0.68;;;0.68;;
13012;SDS011;22580;57.670;12.006;2023-05-07T11:26:14;0.60;;;0.60;;
13012;SDS011;22580;57.670;12.006;2023-05-07T11:28:42;0.70;;;0.70;;
13012;SDS011;22580;57.670;12.006;2023-05-07T11:31:11;0.93;;;0.60;;
13012;SDS011;22580;57.670;12.006;2023-05-07T11:33:38;0.63;;;0.63;;
13012;SDS011;22580;57.670;12.006;2023-05-07T11:36:07;0.52;;;0.52;;
13012;SDS011;22580;57.670;12.006;2023-05-07T11:38:35;0.98;;;0.75;;
13012;SDS011;22580;57.670;12.006;2023-05-07T11:41:02;0.60;;;0.60;;
13012;SDS011;22580;57.670;12.006;2023-05-07T11:43:30;0.52;;;0.52;;
13012;SDS011;22580;57.670;12.006;2023-05-07T11:46:04;0.60;;;0.60;;
13012;SDS011;22580;57.670;12.006;2023-05-07T11:48:35;0.60;;;0.60;;
13012;SDS011;22580;57.670;12.006;2023-05-07T11:51:03;0.65;;;0.60;;
13012;SDS011;22580;57.670;12.006;2023-05-07T11:53:35;0.60;;;0.60;;
13012;SDS011;22580;57.670;12.006;2023-05-07T11:56:06;0.40;;;0.40;;
13012;SDS011;22580;57.670;12.006;2023-05-07T11:58:33;0.50;;;0.50;;
13012;SDS011;22580;57.670;12.006;2023-05-07T12:01:02;0.90;;;0.50;;
13012;SDS011;22580;57.670;12.006;2023-05-07T12:03:29;0.77;;;0.70;;
13012;SDS011;22580;57.670;12.006;2023-05-07T12:05:59;0.45;;;0.45;;
13012;SDS011;22580;57.670;12.006;2023-05-07T12:08:26;0.75;;;0.75;;
13012;SDS011;22580;57.670;12.006;2023-05-07T12:10:53;0.70;;;0.70;;
13012;SDS011;22580;57.670;12.006;2023-05-07T12:13:22;0.70;;;0.70;;
13012;SDS011;22580;57.670;12.006;2023-05-07T12:15:50;1.75;;;1.10;;
13012;SDS011;22580;57.670;12.006;2023-05-07T12:18:18;1.25;;;1.15;;
13012;SDS011;22580;57.670;12.006;2023-05-07T12:20:52;2.47;;;1.73;;
13012;SDS011;22580;57.670;12.006;2023-05-07T12:23:21;1.33;;;1.17;;
13012;SDS011;22580;57.670;12.006;2023-05-07T12:25:51;0.90;;;0.85;;
13012;SDS011;22580;57.670;12.006;2023-05-07T12:28:19;0.57;;;0.57;;
13012;SDS011;22580;57.670;12.006;2023-05-07T12:30:47;0.80;;;0.80;;
13012;SDS011;22580;57.670;12.006;2023-05-07T12:33:16;0.82;;;0.82;;
13012;SDS011;22580;57.670;12.006;2023-05-07T12:35:43;0.80;;;0.80;;
13012;SDS011;22580;57.670;12.006;2023-05-07T12:38:11;1.25;;;0.93;;
13012;SDS011;22580;57.670;12.006;2023-05-07T12:40:41;1.05;;;1.02;;
13012;SDS011;22580;57.670;12.006;2023-05-07T12:43:14;1.35;;;1.20;;
13012;SDS011;22580;57.670;12.006;2023-05-07T12:45:43;1.00;;;1.00;;
13012;SDS011;22580;57.670;12.006;2023-05-07T12:48:11;0.65;;;0.65;;
13012;SDS011;22580;57.670;12.006;2023-05-07T12:50:39;0.60;;;0.60;;
13012;SDS011;22580;57.670;12.006;2023-05-07T12:53:06;0.57;;;0.57;;
13012;SDS011;22580;57.670;12.006;2023-05-07T12:55:44;1.52;;;0.63;;
13012;SDS011;22580;57.670;12.006;2023-05-07T12:58:17;1.25;;;0.95;;
13012;SDS011;22580;57.670;12.006;2023-05-07T13:00:47;1.10;;;1.00;;
13012;SDS011;22580;57.670;12.006;2023-05-07T13:03:23;1.13;;;1.10;;
13012;SDS011;22580;57.670;12.006;2023-05-07T13:05:52;1.20;;;1.10;;
13012;SDS011;22580;57.670;12.006;2023-05-07T13:08:28;1.00;;;1.00;;
13012;SDS011;22580;57.670;12.006;2023-05-07T13:11:00;1.08;;;1.02;;
13012;SDS011;22580;57.670;12.006;2023-05-07T13:13:29;0.90;;;0.90;;
13012;SDS011;22580;57.670;12.006;2023-05-07T13:15:56;0.93;;;0.93;;
13012;SDS011;22580;57.670;12.006;2023-05-07T13:18:24;0.95;;;0.95;;
13012;SDS011;22580;57.670;12.006;2023-05-07T13:20:52;1.23;;;1.10;;
13012;SDS011;22580;57.670;12.006;2023-05-07T13:23:20;1.02;;;0.93;;
13012;SDS011;22580;57.670;12.006;2023-05-07T13:25:47;1.17;;;1.08;;
13012;SDS011;22580;57.670;12.006;2023-05-07T13:28:17;1.08;;;0.93;;
13012;SDS011;22580;57.670;12.006;2023-05-07T13:30:43;0.90;;;0.90;;
13012;SDS011;22580;57.670;12.006;2023-05-07T13:33:11;0.80;;;0.80;;
13012;SDS011;22580;57.670;12.006;2023-05-07T13:35:38;0.90;;;0.90;;
13012;SDS011;22580;57.670;12.006;2023-05-07T13:38:05;0.95;;;0.82;;
13012;SDS011;22580;57.670;12.006;2023-05-07T13:40:33;1.00;;;1.00;;
13012;SDS011;22580;57.670;12.006;2023-05-07T13:43:00;1.30;;;1.20;;
13012;SDS011;22580;57.670;12.006;2023-05-07T13:45:30;1.92;;;1.80;;
13012;SDS011;22580;57.670;12.006;2023-05-07T13:47:57;1.40;;;1.30;;
13012;SDS011;22580;57.670;12.006;2023-05-07T13:50:24;1.20;;;1.20;;
13012;SDS011;22580;57.670;12.006;2023-05-07T13:52:55;1.50;;;1.33;;
13012;SDS011;22580;57.670;12.006;2023-05-07T13:55:23;1.00;;;1.00;;
13012;SDS011;22580;57.670;12.006;2023-05-07T13:57:54;1.20;;;1.10;;
13012;SDS011;22580;57.670;12.006;2023-05-07T14:00:24;1.20;;;1.10;;
13012;SDS011;22580;57.670;12.006;2023-05-07T14:02:53;0.90;;;0.90;;
13012;SDS011;22580;57.670;12.006;2023-05-07T14:05:20;1.10;;;1.10;;
13012;SDS011;22580;57.670;12.006;2023-05-07T14:07:48;1.15;;;1.15;;
13012;SDS011;22580;57.670;12.006;2023-05-07T14:10:16;1.20;;;1.10;;
13012;SDS011;22580;57.670;12.006;2023-05-07T14:12:44;1.10;;;1.02;;
13012;SDS011;22580;57.670;12.006;2023-05-07T14:15:12;1.00;;;1.00;;
13012;SDS011;22580;57.670;12.006;2023-05-07T14:17:41;1.02;;;1.02;;
13012;SDS011;22580;57.670;12.006;2023-05-07T14:20:10;1.05;;;0.98;;
13012;SDS011;22580;57.670;12.006;2023-05-07T14:22:38;1.10;;;1.10;;
13012;SDS011;22580;57.670;12.006;2023-05-07T14:25:05;1.00;;;1.00;;
13012;SDS011;22580;57.670;12.006;2023-05-07T14:27:36;1.40;;;1.30;;
13012;SDS011;22580;57.670;12.006;2023-05-07T14:30:04;1.00;;;1.00;;
13012;SDS011;22580;57.670;12.006;2023-05-07T14:32:32;1.30;;;1.20;;
13012;SDS011;22580;57.670;12.006;2023-05-07T14:34:59;1.20;;;1.20;;
13012;SDS011;22580;57.670;12.006;2023-05-07T14:37:27;1.48;;;1.38;;
13012;SDS011;22580;57.670;12.006;2023-05-07T14:39:54;1.10;;;1.10;;
13012;SDS011;22580;57.670;12.006;2023-05-07T14:42:21;1.05;;;1.00;;
13012;SDS011;22580;57.670;12.006;2023-05-07T14:44:48;2.78;;;1.00;;
13012;SDS011;22580;57.670;12.006;2023-05-07T14:47:15;1.10;;;1.10;;
13012;SDS011;22580;57.670;12.006;2023-05-07T14:49:42;1.30;;;1.20;;
13012;SDS011;22580;57.670;12.006;2023-05-07T14:52:09;1.00;;;1.00;;
13012;SDS011;22580;57.670;12.006;2023-05-07T14:54:37;1.00;;;1.00;;